sensor_id;sensor_type;location;lat;lon;timestamp;temperature;humidity
10802;DHT22;5453;50.852;7.102;2024-02-16T00:02:22;13.40;99.90
10802;DHT22;5453;50.852;7.102;2024-02-16T00:04:56;13.40;99.90
10802;DHT22;5453;50.852;7.102;2024-02-16T00:07:28;13.30;99.90
10802;DHT22;5453;50.852;7.102;2024-02-16T00:10:01;13.30;99.90
10802;DHT22;5453;50.852;7.102;2024-02-16T00:12:35;13.30;99.90
10802;DHT22;5453;50.852;7.102;2024-02-16T00:15:09;13.30;99.90
10802;DHT22;5453;50.852;7.102;2024-02-16T00:17:42;13.30;99.90
10802;DHT22;5453;50.852;7.102;2024-02-16T00:20:17;13.30;99.90
10802;DHT22;5453;50.852;7.102;2024-02-16T00:22:52;13.30;99.90
10802;DHT22;5453;50.852;7.102;2024-02-16T00:25:27;13.20;99.90
10802;DHT22;5453;50.852;7.102;2024-02-16T00:28:00;13.20;99.90
10802;DHT22;5453;50.852;7.102;2024-02-16T00:30:32;13.20;99.90
10802;DHT22;5453;50.852;7.102;2024-02-16T00:33:04;13.20;99.90
10802;DHT22;5453;50.852;7.102;2024-02-16T00:35:39;13.20;99.90
10802;DHT22;5453;50.852;7.102;2024-02-16T00:38:11;13.20;99.90
10802;DHT22;5453;50.852;7.102;2024-02-16T00:40:44;13.20;99.90
10802;DHT22;5453;50.852;7.102;2024-02-16T00:43:19;13.20;99.90
10802;DHT22;5453;50.852;7.102;2024-02-16T00:45:52;13.20;99.90
10802;DHT22;5453;50.852;7.102;2024-02-16T00:48:24;13.20;99.90
10802;DHT22;5453;50.852;7.102;2024-02-16T00:50:58;13.20;99.90
10802;DHT22;5453;50.852;7.102;2024-02-16T00:53:30;13.20;99.90
10802;DHT22;5453;50.852;7.102;2024-02-16T00:56:03;13.20;99.90
10802;DHT22;5453;50.852;7.102;2024-02-16T00:58:36;13.20;99.90
10802;DHT22;5453;50.852;7.102;2024-02-16T01:01:08;13.20;99.90
10802;DHT22;5453;50.852;7.102;2024-02-16T01:03:42;13.20;99.90
10802;DHT22;5453;50.852;7.102;2024-02-16T01:06:16;13.30;99.90
10802;DHT22;5453;50.852;7.102;2024-02-16T01:08:49;13.20;99.90
10802;DHT22;5453;50.852;7.102;2024-02-16T01:11:21;13.20;99.90
10802;DHT22;5453;50.852;7.102;2024-02-16T01:13:53;13.30;99.90
10802;DHT22;5453;50.852;7.102;2024-02-16T01:16:26;13.20;99.90
10802;DHT22;5453;50.852;7.102;2024-02-16T01:18:58;13.30;99.90
10802;DHT22;5453;50.852;7.102;2024-02-16T01:21:35;13.20;99.90
10802;DHT22;5453;50.852;7.102;2024-02-16T01:24:08;13.30;99.90
10802;DHT22;5453;50.852;7.102;2024-02-16T01:26:40;13.20;99.90
10802;DHT22;5453;50.852;7.102;2024-02-16T01:29:12;13.20;99.90
10802;DHT22;5453;50.852;7.102;2024-02-16T01:31:45;13.20;99.90
10802;DHT22;5453;50.852;7.102;2024-02-16T01:34:17;13.30;99.90
10802;DHT22;5453;50.852;7.102;2024-02-16T01:36:51;13.20;99.90
10802;DHT22;5453;50.852;7.102;2024-02-16T01:39:23;13.20;99.90
10802;DHT22;5453;50.852;7.102;2024-02-16T01:41:56;13.20;99.90
10802;DHT22;5453;50.852;7.102;2024-02-16T01:44:28;13.30;99.90
10802;DHT22;5453;50.852;7.102;2024-02-16T01:47:00;13.20;99.90
10802;DHT22;5453;50.852;7.102;2024-02-16T01:49:33;13.20;99.90
10802;DHT22;5453;50.852;7.102;2024-02-16T01:52:07;13.20;99.90
10802;DHT22;5453;50.852;7.102;2024-02-16T01:54:40;13.20;99.90
10802;DHT22;5453;50.852;7.102;2024-02-16T01:57:12;13.30;99.90
10802;DHT22;5453;50.852;7.102;2024-02-16T01:59:45;13.30;99.90
10802;DHT22;5453;50.852;7.102;2024-02-16T02:02:18;13.30;99.90
10802;DHT22;5453;50.852;7.102;2024-02-16T02:04:50;13.30;99.90
10802;DHT22;5453;50.852;7.102;2024-02-16T02:07:26;13.30;99.90
10802;DHT22;5453;50.852;7.102;2024-02-16T02:09:59;13.40;99.90
10802;DHT22;5453;50.852;7.102;2024-02-16T02:12:31;13.40;99.90
10802;DHT22;5453;50.852;7.102;2024-02-16T02:15:05;13.40;99.90
10802;DHT22;5453;50.852;7.102;2024-02-16T02:17:38;13.40;99.90
10802;DHT22;5453;50.852;7.102;2024-02-16T02:20:10;13.40;99.90
10802;DHT22;5453;50.852;7.102;2024-02-16T02:22:44;13.40;99.90
10802;DHT22;5453;50.852;7.102;2024-02-16T02:25:20;13.40;99.90
10802;DHT22;5453;50.852;7.102;2024-02-16T02:27:52;13.40;99.90
10802;DHT22;5453;50.852;7.102;2024-02-16T02:30:25;13.40;99.90
10802;DHT22;5453;50.852;7.102;2024-02-16T02:32:57;13.40;99.90
10802;DHT22;5453;50.852;7.102;2024-02-16T02:35:29;13.30;99.90
10802;DHT22;5453;50.852;7.102;2024-02-16T02:38:03;13.30;99.90
10802;DHT22;5453;50.852;7.102;2024-02-16T02:40:36;13.30;99.90
10802;DHT22;5453;50.852;7.102;2024-02-16T02:43:08;13.30;99.90
10802;DHT22;5453;50.852;7.102;2024-02-16T02:45:41;13.30;99.90
10802;DHT22;5453;50.852;7.102;2024-02-16T02:48:13;13.20;99.90
10802;DHT22;5453;50.852;7.102;2024-02-16T02:50:46;13.20;99.90
10802;DHT22;5453;50.852;7.102;2024-02-16T02:53:19;13.20;99.90
10802;DHT22;5453;50.852;7.102;2024-02-16T02:55:52;13.20;99.90
10802;DHT22;5453;50.852;7.102;2024-02-16T02:58:25;13.20;99.90
10802;DHT22;5453;50.852;7.102;2024-02-16T03:00:57;13.20;99.90
10802;DHT22;5453;50.852;7.102;2024-02-16T03:03:29;13.20;99.90
10802;DHT22;5453;50.852;7.102;2024-02-16T03:06:02;13.20;99.90
10802;DHT22;5453;50.852;7.102;2024-02-16T03:08:36;13.10;99.90
10802;DHT22;5453;50.852;7.102;2024-02-16T03:11:08;13.10;99.90
10802;DHT22;5453;50.852;7.102;2024-02-16T03:13:41;13.10;99.90
10802;DHT22;5453;50.852;7.102;2024-02-16T03:16:13;13.00;99.90
10802;DHT22;5453;50.852;7.102;2024-02-16T03:18:46;13.10;99.90
10802;DHT22;5453;50.852;7.102;2024-02-16T03:21:18;13.10;99.90
10802;DHT22;5453;50.852;7.102;2024-02-16T03:23:53;13.10;99.90
10802;DHT22;5453;50.852;7.102;2024-02-16T03:26:25;13.10;99.90
10802;DHT22;5453;50.852;7.102;2024-02-16T03:28:58;13.10;99.90
10802;DHT22;5453;50.852;7.102;2024-02-16T03:31:30;13.10;99.90
10802;DHT22;5453;50.852;7.102;2024-02-16T03:34:04;13.10;99.90
10802;DHT22;5453;50.852;7.102;2024-02-16T03:36:36;13.20;99.90
10802;DHT22;5453;50.852;7.102;2024-02-16T03:39:10;13.10;99.90
10802;DHT22;5453;50.852;7.102;2024-02-16T03:41:43;13.10;99.90
10802;DHT22;5453;50.852;7.102;2024-02-16T03:44:18;13.10;99.90
10802;DHT22;5453;50.852;7.102;2024-02-16T03:46:50;13.20;99.90
10802;DHT22;5453;50.852;7.102;2024-02-16T03:49:22;13.20;99.90
10802;DHT22;5453;50.852;7.102;2024-02-16T03:51:58;13.10;99.90
10802;DHT22;5453;50.852;7.102;2024-02-16T03:54:32;13.20;99.90
10802;DHT22;5453;50.852;7.102;2024-02-16T03:57:05;13.10;99.90
10802;DHT22;5453;50.852;7.102;2024-02-16T03:59:42;13.20;99.90
10802;DHT22;5453;50.852;7.102;2024-02-16T04:02:15;13.10;99.90
10802;DHT22;5453;50.852;7.102;2024-02-16T04:04:47;13.20;99.90
10802;DHT22;5453;50.852;7.102;2024-02-16T04:07:20;13.20;99.90
10802;DHT22;5453;50.852;7.102;2024-02-16T04:09:57;13.20;99.90
10802;DHT22;5453;50.852;7.102;2024-02-16T04:12:31;13.20;99.90
10802;DHT22;5453;50.852;7.102;2024-02-16T04:15:04;13.20;99.90
10802;DHT22;5453;50.852;7.102;2024-02-16T04:17:37;13.10;99.90
10802;DHT22;5453;50.852;7.102;2024-02-16T04:20:10;13.10;99.90
10802;DHT22;5453;50.852;7.102;2024-02-16T04:22:42;13.10;99.90
10802;DHT22;5453;50.852;7.102;2024-02-16T04:25:16;13.10;99.90
10802;DHT22;5453;50.852;7.102;2024-02-16T04:27:49;13.10;99.90
10802;DHT22;5453;50.852;7.102;2024-02-16T04:30:21;13.00;99.90
10802;DHT22;5453;50.852;7.102;2024-02-16T04:32:54;13.00;99.90
10802;DHT22;5453;50.852;7.102;2024-02-16T04:35:26;13.00;99.90
10802;DHT22;5453;50.852;7.102;2024-02-16T04:37:59;13.00;99.90
10802;DHT22;5453;50.852;7.102;2024-02-16T04:40:36;13.00;99.90
10802;DHT22;5453;50.852;7.102;2024-02-16T04:43:09;13.00;99.90
10802;DHT22;5453;50.852;7.102;2024-02-16T04:45:41;13.00;99.90
10802;DHT22;5453;50.852;7.102;2024-02-16T04:48:14;13.00;99.90
10802;DHT22;5453;50.852;7.102;2024-02-16T04:50:46;13.10;99.90
10802;DHT22;5453;50.852;7.102;2024-02-16T04:53:18;13.00;99.90
10802;DHT22;5453;50.852;7.102;2024-02-16T04:55:55;13.10;99.90
10802;DHT22;5453;50.852;7.102;2024-02-16T04:58:28;13.00;99.90
10802;DHT22;5453;50.852;7.102;2024-02-16T05:01:00;13.00;99.90
10802;DHT22;5453;50.852;7.102;2024-02-16T05:03:33;13.00;99.90
10802;DHT22;5453;50.852;7.102;2024-02-16T05:06:06;13.00;99.90
10802;DHT22;5453;50.852;7.102;2024-02-16T05:08:38;13.10;99.90
10802;DHT22;5453;50.852;7.102;2024-02-16T05:11:12;13.10;99.90
10802;DHT22;5453;50.852;7.102;2024-02-16T05:13:44;13.10;99.90
10802;DHT22;5453;50.852;7.102;2024-02-16T05:16:17;13.10;99.90
10802;DHT22;5453;50.852;7.102;2024-02-16T05:18:49;13.10;99.90
10802;DHT22;5453;50.852;7.102;2024-02-16T05:21:22;13.10;99.90
10802;DHT22;5453;50.852;7.102;2024-02-16T05:23:54;13.10;99.90
10802;DHT22;5453;50.852;7.102;2024-02-16T05:26:28;13.10;99.90
10802;DHT22;5453;50.852;7.102;2024-02-16T05:29:00;13.10;99.90
10802;DHT22;5453;50.852;7.102;2024-02-16T05:31:33;13.10;99.90
10802;DHT22;5453;50.852;7.102;2024-02-16T05:34:06;13.10;99.90
10802;DHT22;5453;50.852;7.102;2024-02-16T05:36:38;13.10;99.90
10802;DHT22;5453;50.852;7.102;2024-02-16T05:39:09;13.10;99.90
10802;DHT22;5453;50.852;7.102;2024-02-16T05:41:52;13.10;99.90
10802;DHT22;5453;50.852;7.102;2024-02-16T05:44:25;13.10;99.90
10802;DHT22;5453;50.852;7.102;2024-02-16T05:46:57;13.20;99.90
10802;DHT22;5453;50.852;7.102;2024-02-16T05:49:30;13.10;99.90
10802;DHT22;5453;50.852;7.102;2024-02-16T05:52:05;13.10;99.90
10802;DHT22;5453;50.852;7.102;2024-02-16T05:54:51;13.20;99.90
10802;DHT22;5453;50.852;7.102;2024-02-16T05:57:25;13.20;99.90
10802;DHT22;5453;50.852;7.102;2024-02-16T06:00:00;13.20;99.90
10802;DHT22;5453;50.852;7.102;2024-02-16T06:02:35;13.20;99.90
10802;DHT22;5453;50.852;7.102;2024-02-16T06:05:08;13.20;99.90
10802;DHT22;5453;50.852;7.102;2024-02-16T06:07:41;13.20;99.90
10802;DHT22;5453;50.852;7.102;2024-02-16T06:10:14;13.20;99.90
10802;DHT22;5453;50.852;7.102;2024-02-16T06:12:48;13.20;99.90
10802;DHT22;5453;50.852;7.102;2024-02-16T06:15:20;13.20;99.90
10802;DHT22;5453;50.852;7.102;2024-02-16T06:17:52;13.20;99.90
10802;DHT22;5453;50.852;7.102;2024-02-16T06:20:25;13.20;99.90
10802;DHT22;5453;50.852;7.102;2024-02-16T06:22:57;13.20;99.90
10802;DHT22;5453;50.852;7.102;2024-02-16T06:25:29;13.20;99.90
10802;DHT22;5453;50.852;7.102;2024-02-16T06:28:04;13.20;99.90
10802;DHT22;5453;50.852;7.102;2024-02-16T06:30:37;13.20;99.90
10802;DHT22;5453;50.852;7.102;2024-02-16T06:33:09;13.20;99.90
10802;DHT22;5453;50.852;7.102;2024-02-16T06:35:42;13.30;99.90
10802;DHT22;5453;50.852;7.102;2024-02-16T06:38:17;13.30;99.90
10802;DHT22;5453;50.852;7.102;2024-02-16T06:40:49;13.30;99.90
10802;DHT22;5453;50.852;7.102;2024-02-16T06:43:23;13.30;99.90
10802;DHT22;5453;50.852;7.102;2024-02-16T06:45:55;13.30;99.90
10802;DHT22;5453;50.852;7.102;2024-02-16T06:48:28;13.20;99.90
10802;DHT22;5453;50.852;7.102;2024-02-16T06:51:00;13.30;99.90
10802;DHT22;5453;50.852;7.102;2024-02-16T06:53:32;13.30;99.90
10802;DHT22;5453;50.852;7.102;2024-02-16T06:56:05;13.30;99.90
10802;DHT22;5453;50.852;7.102;2024-02-16T06:58:40;13.20;99.90
10802;DHT22;5453;50.852;7.102;2024-02-16T07:01:12;13.30;99.90
10802;DHT22;5453;50.852;7.102;2024-02-16T07:03:45;13.30;99.90
10802;DHT22;5453;50.852;7.102;2024-02-16T07:06:17;13.30;99.90
10802;DHT22;5453;50.852;7.102;2024-02-16T07:08:50;13.30;99.90
10802;DHT22;5453;50.852;7.102;2024-02-16T07:11:22;13.40;99.90
10802;DHT22;5453;50.852;7.102;2024-02-16T07:13:59;13.40;99.90
10802;DHT22;5453;50.852;7.102;2024-02-16T07:16:33;13.40;99.90
10802;DHT22;5453;50.852;7.102;2024-02-16T07:19:05;13.40;99.90
10802;DHT22;5453;50.852;7.102;2024-02-16T07:21:37;13.40;99.90
10802;DHT22;5453;50.852;7.102;2024-02-16T07:24:10;13.40;99.90
10802;DHT22;5453;50.852;7.102;2024-02-16T07:26:42;13.50;99.90
10802;DHT22;5453;50.852;7.102;2024-02-16T07:29:16;13.50;99.90
10802;DHT22;5453;50.852;7.102;2024-02-16T07:31:48;13.50;99.90
10802;DHT22;5453;50.852;7.102;2024-02-16T07:34:22;13.50;99.90
10802;DHT22;5453;50.852;7.102;2024-02-16T07:36:55;13.50;99.90
10802;DHT22;5453;50.852;7.102;2024-02-16T07:39:27;13.50;99.90
10802;DHT22;5453;50.852;7.102;2024-02-16T07:42:03;13.50;99.90
10802;DHT22;5453;50.852;7.102;2024-02-16T07:44:37;13.50;99.90
10802;DHT22;5453;50.852;7.102;2024-02-16T07:47:09;13.50;99.90
10802;DHT22;5453;50.852;7.102;2024-02-16T07:49:43;13.50;99.90
10802;DHT22;5453;50.852;7.102;2024-02-16T07:52:19;13.60;99.90
10802;DHT22;5453;50.852;7.102;2024-02-16T07:54:52;13.60;99.90
10802;DHT22;5453;50.852;7.102;2024-02-16T07:57:24;13.60;99.90
10802;DHT22;5453;50.852;7.102;2024-02-16T07:59:58;13.60;99.90
10802;DHT22;5453;50.852;7.102;2024-02-16T08:02:30;13.60;99.90
10802;DHT22;5453;50.852;7.102;2024-02-16T08:05:03;13.60;99.90
10802;DHT22;5453;50.852;7.102;2024-02-16T08:07:36;13.60;99.90
10802;DHT22;5453;50.852;7.102;2024-02-16T08:10:09;13.60;99.90
10802;DHT22;5453;50.852;7.102;2024-02-16T08:12:43;13.60;99.90
10802;DHT22;5453;50.852;7.102;2024-02-16T08:15:17;13.60;99.90
10802;DHT22;5453;50.852;7.102;2024-02-16T08:17:53;13.60;99.90
10802;DHT22;5453;50.852;7.102;2024-02-16T08:20:26;13.60;99.90
10802;DHT22;5453;50.852;7.102;2024-02-16T08:22:58;13.60;99.90
10802;DHT22;5453;50.852;7.102;2024-02-16T08:25:30;13.60;99.90
10802;DHT22;5453;50.852;7.102;2024-02-16T08:28:04;13.60;99.90
10802;DHT22;5453;50.852;7.102;2024-02-16T08:30:38;13.70;99.90
10802;DHT22;5453;50.852;7.102;2024-02-16T08:33:12;13.70;99.90
10802;DHT22;5453;50.852;7.102;2024-02-16T08:35:44;13.70;99.90
10802;DHT22;5453;50.852;7.102;2024-02-16T08:38:17;13.70;99.90
10802;DHT22;5453;50.852;7.102;2024-02-16T08:40:49;13.70;99.90
10802;DHT22;5453;50.852;7.102;2024-02-16T08:43:22;13.80;99.90
10802;DHT22;5453;50.852;7.102;2024-02-16T08:45:56;13.80;99.90
10802;DHT22;5453;50.852;7.102;2024-02-16T08:48:28;13.80;99.90
10802;DHT22;5453;50.852;7.102;2024-02-16T08:51:01;13.80;99.90
10802;DHT22;5453;50.852;7.102;2024-02-16T08:53:33;13.80;99.90
10802;DHT22;5453;50.852;7.102;2024-02-16T08:56:09;13.90;99.90
10802;DHT22;5453;50.852;7.102;2024-02-16T08:58:42;13.90;99.90
10802;DHT22;5453;50.852;7.102;2024-02-16T09:01:16;13.90;99.90
10802;DHT22;5453;50.852;7.102;2024-02-16T09:03:48;14.00;99.90
10802;DHT22;5453;50.852;7.102;2024-02-16T09:06:21;14.00;99.90
10802;DHT22;5453;50.852;7.102;2024-02-16T09:08:54;14.00;99.90
10802;DHT22;5453;50.852;7.102;2024-02-16T09:11:27;14.10;99.90
10802;DHT22;5453;50.852;7.102;2024-02-16T09:13:59;14.10;99.90
10802;DHT22;5453;50.852;7.102;2024-02-16T09:16:33;14.20;99.90
10802;DHT22;5453;50.852;7.102;2024-02-16T09:19:06;14.20;99.90
10802;DHT22;5453;50.852;7.102;2024-02-16T09:21:38;14.20;99.90
10802;DHT22;5453;50.852;7.102;2024-02-16T09:24:10;14.20;99.90
10802;DHT22;5453;50.852;7.102;2024-02-16T09:26:48;14.20;99.90
10802;DHT22;5453;50.852;7.102;2024-02-16T09:29:21;14.20;99.90
10802;DHT22;5453;50.852;7.102;2024-02-16T09:31:55;14.20;99.90
10802;DHT22;5453;50.852;7.102;2024-02-16T09:34:30;14.10;99.90
10802;DHT22;5453;50.852;7.102;2024-02-16T09:37:03;14.20;99.90
10802;DHT22;5453;50.852;7.102;2024-02-16T09:39:35;14.20;99.90
10802;DHT22;5453;50.852;7.102;2024-02-16T09:42:16;14.20;99.90
10802;DHT22;5453;50.852;7.102;2024-02-16T09:44:49;14.20;99.90
10802;DHT22;5453;50.852;7.102;2024-02-16T09:47:24;14.20;99.90
10802;DHT22;5453;50.852;7.102;2024-02-16T09:50:01;14.10;99.90
10802;DHT22;5453;50.852;7.102;2024-02-16T09:52:34;14.10;99.90
10802;DHT22;5453;50.852;7.102;2024-02-16T09:55:08;14.10;99.90
10802;DHT22;5453;50.852;7.102;2024-02-16T09:57:44;14.20;99.90
10802;DHT22;5453;50.852;7.102;2024-02-16T10:00:17;14.20;99.90
10802;DHT22;5453;50.852;7.102;2024-02-16T10:02:51;14.20;99.90
10802;DHT22;5453;50.852;7.102;2024-02-16T10:05:23;14.20;99.90
10802;DHT22;5453;50.852;7.102;2024-02-16T10:07:56;14.20;99.90
10802;DHT22;5453;50.852;7.102;2024-02-16T10:10:28;14.20;99.90
10802;DHT22;5453;50.852;7.102;2024-02-16T10:13:03;14.20;99.90
10802;DHT22;5453;50.852;7.102;2024-02-16T10:15:36;14.20;99.90
10802;DHT22;5453;50.852;7.102;2024-02-16T10:18:09;14.20;99.90
10802;DHT22;5453;50.852;7.102;2024-02-16T10:20:44;14.20;99.90
10802;DHT22;5453;50.852;7.102;2024-02-16T10:23:17;14.20;99.90
10802;DHT22;5453;50.852;7.102;2024-02-16T10:25:49;14.20;99.90
10802;DHT22;5453;50.852;7.102;2024-02-16T10:28:24;14.10;99.90
10802;DHT22;5453;50.852;7.102;2024-02-16T10:31:01;14.10;99.90
10802;DHT22;5453;50.852;7.102;2024-02-16T10:33:35;14.10;99.90
10802;DHT22;5453;50.852;7.102;2024-02-16T10:36:09;14.10;99.90
10802;DHT22;5453;50.852;7.102;2024-02-16T10:38:45;14.10;99.90
10802;DHT22;5453;50.852;7.102;2024-02-16T10:41:20;14.10;99.90
10802;DHT22;5453;50.852;7.102;2024-02-16T10:43:54;14.10;99.90
10802;DHT22;5453;50.852;7.102;2024-02-16T10:46:27;14.10;99.90
10802;DHT22;5453;50.852;7.102;2024-02-16T10:49:02;14.10;99.90
10802;DHT22;5453;50.852;7.102;2024-02-16T10:51:39;14.10;99.90
10802;DHT22;5453;50.852;7.102;2024-02-16T10:54:17;14.10;99.90
10802;DHT22;5453;50.852;7.102;2024-02-16T10:56:53;14.10;99.90
10802;DHT22;5453;50.852;7.102;2024-02-16T10:59:26;14.10;99.90
10802;DHT22;5453;50.852;7.102;2024-02-16T11:02:00;14.10;99.90
10802;DHT22;5453;50.852;7.102;2024-02-16T11:04:38;14.10;99.90
10802;DHT22;5453;50.852;7.102;2024-02-16T11:07:13;14.10;99.90
10802;DHT22;5453;50.852;7.102;2024-02-16T11:09:47;14.10;99.90
10802;DHT22;5453;50.852;7.102;2024-02-16T11:12:19;14.10;99.90
10802;DHT22;5453;50.852;7.102;2024-02-16T11:14:57;14.10;99.90
10802;DHT22;5453;50.852;7.102;2024-02-16T11:17:29;14.10;99.90
10802;DHT22;5453;50.852;7.102;2024-02-16T11:20:03;14.10;99.90
10802;DHT22;5453;50.852;7.102;2024-02-16T11:22:39;14.10;99.90
10802;DHT22;5453;50.852;7.102;2024-02-16T11:25:12;14.10;99.90
10802;DHT22;5453;50.852;7.102;2024-02-16T11:27:45;14.10;99.90
10802;DHT22;5453;50.852;7.102;2024-02-16T11:30:17;14.10;99.90
10802;DHT22;5453;50.852;7.102;2024-02-16T11:32:51;14.10;99.90
10802;DHT22;5453;50.852;7.102;2024-02-16T11:35:25;14.10;99.90
10802;DHT22;5453;50.852;7.102;2024-02-16T11:37:57;14.10;99.90
10802;DHT22;5453;50.852;7.102;2024-02-16T11:40:32;14.20;99.90
10802;DHT22;5453;50.852;7.102;2024-02-16T11:43:05;14.20;99.90
10802;DHT22;5453;50.852;7.102;2024-02-16T11:45:38;14.20;99.90
10802;DHT22;5453;50.852;7.102;2024-02-16T11:48:10;14.20;99.90
10802;DHT22;5453;50.852;7.102;2024-02-16T11:50:44;14.20;99.90
10802;DHT22;5453;50.852;7.102;2024-02-16T11:53:18;14.30;99.90
10802;DHT22;5453;50.852;7.102;2024-02-16T11:55:51;14.30;99.90
10802;DHT22;5453;50.852;7.102;2024-02-16T11:58:24;14.30;99.90
10802;DHT22;5453;50.852;7.102;2024-02-16T12:00:56;14.40;99.90
10802;DHT22;5453;50.852;7.102;2024-02-16T12:03:30;14.40;99.90
10802;DHT22;5453;50.852;7.102;2024-02-16T12:06:05;14.60;99.90
10802;DHT22;5453;50.852;7.102;2024-02-16T12:08:39;14.80;99.90
10802;DHT22;5453;50.852;7.102;2024-02-16T12:11:11;15.10;99.90
10802;DHT22;5453;50.852;7.102;2024-02-16T12:13:45;15.30;99.90
10802;DHT22;5453;50.852;7.102;2024-02-16T12:16:19;15.50;99.90
10802;DHT22;5453;50.852;7.102;2024-02-16T12:19:02;15.50;99.90
10802;DHT22;5453;50.852;7.102;2024-02-16T12:21:38;15.40;99.90
10802;DHT22;5453;50.852;7.102;2024-02-16T12:24:11;15.20;99.90
10802;DHT22;5453;50.852;7.102;2024-02-16T12:26:43;15.10;99.90
10802;DHT22;5453;50.852;7.102;2024-02-16T12:29:16;15.00;99.90
10802;DHT22;5453;50.852;7.102;2024-02-16T12:31:49;14.90;99.90
10802;DHT22;5453;50.852;7.102;2024-02-16T12:34:21;14.80;99.90
10802;DHT22;5453;50.852;7.102;2024-02-16T12:36:55;14.80;99.90
10802;DHT22;5453;50.852;7.102;2024-02-16T12:39:28;14.70;99.90
10802;DHT22;5453;50.852;7.102;2024-02-16T12:42:00;14.70;99.90
10802;DHT22;5453;50.852;7.102;2024-02-16T12:44:36;14.60;99.90
10802;DHT22;5453;50.852;7.102;2024-02-16T12:47:09;14.60;99.90
10802;DHT22;5453;50.852;7.102;2024-02-16T12:49:41;14.60;99.90
10802;DHT22;5453;50.852;7.102;2024-02-16T12:52:20;14.60;99.90
10802;DHT22;5453;50.852;7.102;2024-02-16T12:54:53;14.50;99.90
10802;DHT22;5453;50.852;7.102;2024-02-16T12:57:26;14.50;99.90
10802;DHT22;5453;50.852;7.102;2024-02-16T13:00:00;14.50;99.90
10802;DHT22;5453;50.852;7.102;2024-02-16T13:02:34;14.50;99.90
10802;DHT22;5453;50.852;7.102;2024-02-16T13:05:06;14.50;99.90
10802;DHT22;5453;50.852;7.102;2024-02-16T13:07:41;14.50;99.90
10802;DHT22;5453;50.852;7.102;2024-02-16T13:10:13;14.50;99.90
10802;DHT22;5453;50.852;7.102;2024-02-16T13:12:49;14.50;99.90
10802;DHT22;5453;50.852;7.102;2024-02-16T13:15:21;14.50;99.90
10802;DHT22;5453;50.852;7.102;2024-02-16T13:17:53;14.60;99.90
10802;DHT22;5453;50.852;7.102;2024-02-16T13:20:26;14.80;99.90
10802;DHT22;5453;50.852;7.102;2024-02-16T13:23:03;14.90;99.90
10802;DHT22;5453;50.852;7.102;2024-02-16T13:25:35;14.90;99.90
10802;DHT22;5453;50.852;7.102;2024-02-16T13:28:08;14.80;99.90
10802;DHT22;5453;50.852;7.102;2024-02-16T13:30:43;14.70;99.90
10802;DHT22;5453;50.852;7.102;2024-02-16T13:33:16;14.70;99.90
10802;DHT22;5453;50.852;7.102;2024-02-16T13:35:48;14.70;99.90
10802;DHT22;5453;50.852;7.102;2024-02-16T13:38:22;14.60;99.90
10802;DHT22;5453;50.852;7.102;2024-02-16T13:40:54;14.60;99.90
10802;DHT22;5453;50.852;7.102;2024-02-16T13:43:27;14.50;99.90
10802;DHT22;5453;50.852;7.102;2024-02-16T13:45:59;14.50;99.90
10802;DHT22;5453;50.852;7.102;2024-02-16T13:48:32;14.50;99.90
10802;DHT22;5453;50.852;7.102;2024-02-16T13:51:08;14.50;99.90
10802;DHT22;5453;50.852;7.102;2024-02-16T13:53:41;14.40;99.90
10802;DHT22;5453;50.852;7.102;2024-02-16T13:56:14;14.40;99.90
10802;DHT22;5453;50.852;7.102;2024-02-16T13:58:46;14.40;99.90
10802;DHT22;5453;50.852;7.102;2024-02-16T14:01:19;14.30;99.90
10802;DHT22;5453;50.852;7.102;2024-02-16T14:03:51;14.30;99.90
10802;DHT22;5453;50.852;7.102;2024-02-16T14:06:24;14.30;99.90
10802;DHT22;5453;50.852;7.102;2024-02-16T14:08:57;14.30;99.90
10802;DHT22;5453;50.852;7.102;2024-02-16T14:11:30;14.30;99.90
10802;DHT22;5453;50.852;7.102;2024-02-16T14:14:02;14.20;99.90
10802;DHT22;5453;50.852;7.102;2024-02-16T14:16:34;14.30;99.90
10802;DHT22;5453;50.852;7.102;2024-02-16T14:19:07;14.30;99.90
10802;DHT22;5453;50.852;7.102;2024-02-16T14:21:39;14.30;99.90
10802;DHT22;5453;50.852;7.102;2024-02-16T14:24:13;14.30;99.90
10802;DHT22;5453;50.852;7.102;2024-02-16T14:26:47;14.20;99.90
10802;DHT22;5453;50.852;7.102;2024-02-16T14:29:19;14.30;99.90
10802;DHT22;5453;50.852;7.102;2024-02-16T14:31:51;14.30;99.90
10802;DHT22;5453;50.852;7.102;2024-02-16T14:34:24;14.30;99.90
10802;DHT22;5453;50.852;7.102;2024-02-16T14:36:56;14.20;99.90
10802;DHT22;5453;50.852;7.102;2024-02-16T14:39:30;14.20;99.90
10802;DHT22;5453;50.852;7.102;2024-02-16T14:42:02;14.20;99.90
10802;DHT22;5453;50.852;7.102;2024-02-16T14:44:35;14.20;99.90
10802;DHT22;5453;50.852;7.102;2024-02-16T14:47:07;14.20;99.90
10802;DHT22;5453;50.852;7.102;2024-02-16T14:49:40;14.20;99.90
10802;DHT22;5453;50.852;7.102;2024-02-16T14:52:13;14.20;99.90
10802;DHT22;5453;50.852;7.102;2024-02-16T14:54:46;14.20;99.90
10802;DHT22;5453;50.852;7.102;2024-02-16T14:57:19;14.20;99.90
10802;DHT22;5453;50.852;7.102;2024-02-16T14:59:53;14.20;99.90
10802;DHT22;5453;50.852;7.102;2024-02-16T15:02:27;14.20;99.90
10802;DHT22;5453;50.852;7.102;2024-02-16T15:04:59;14.20;99.90
10802;DHT22;5453;50.852;7.102;2024-02-16T15:07:32;14.10;99.90
10802;DHT22;5453;50.852;7.102;2024-02-16T15:10:06;14.10;99.90
10802;DHT22;5453;50.852;7.102;2024-02-16T15:12:41;14.10;99.90
10802;DHT22;5453;50.852;7.102;2024-02-16T15:15:14;14.10;99.90
10802;DHT22;5453;50.852;7.102;2024-02-16T15:17:46;14.10;99.90
10802;DHT22;5453;50.852;7.102;2024-02-16T15:20:19;14.10;99.90
10802;DHT22;5453;50.852;7.102;2024-02-16T15:22:53;14.10;99.90
10802;DHT22;5453;50.852;7.102;2024-02-16T15:25:27;14.10;99.90
10802;DHT22;5453;50.852;7.102;2024-02-16T15:27:59;14.00;99.90
10802;DHT22;5453;50.852;7.102;2024-02-16T15:30:32;14.00;99.90
10802;DHT22;5453;50.852;7.102;2024-02-16T15:33:04;14.00;99.90
10802;DHT22;5453;50.852;7.102;2024-02-16T15:35:37;14.00;99.90
10802;DHT22;5453;50.852;7.102;2024-02-16T15:38:09;14.00;99.90
10802;DHT22;5453;50.852;7.102;2024-02-16T15:40:43;14.00;99.90
10802;DHT22;5453;50.852;7.102;2024-02-16T15:43:15;13.90;99.90
10802;DHT22;5453;50.852;7.102;2024-02-16T15:45:48;13.90;99.90
10802;DHT22;5453;50.852;7.102;2024-02-16T15:48:21;14.00;99.90
10802;DHT22;5453;50.852;7.102;2024-02-16T15:50:53;13.90;99.90
10802;DHT22;5453;50.852;7.102;2024-02-16T15:53:25;13.90;99.90
10802;DHT22;5453;50.852;7.102;2024-02-16T15:56:01;14.00;99.90
10802;DHT22;5453;50.852;7.102;2024-02-16T15:58:35;14.00;99.90
10802;DHT22;5453;50.852;7.102;2024-02-16T16:01:07;13.90;99.90
10802;DHT22;5453;50.852;7.102;2024-02-16T16:03:40;14.00;99.90
10802;DHT22;5453;50.852;7.102;2024-02-16T16:06:14;13.90;99.90
10802;DHT22;5453;50.852;7.102;2024-02-16T16:08:46;13.90;99.90
10802;DHT22;5453;50.852;7.102;2024-02-16T16:11:23;13.90;99.90
10802;DHT22;5453;50.852;7.102;2024-02-16T16:13:55;13.90;99.90
10802;DHT22;5453;50.852;7.102;2024-02-16T16:16:28;13.90;99.90
10802;DHT22;5453;50.852;7.102;2024-02-16T16:19:03;13.80;99.90
10802;DHT22;5453;50.852;7.102;2024-02-16T16:21:37;13.80;99.90
10802;DHT22;5453;50.852;7.102;2024-02-16T16:24:09;13.80;99.90